College Station, TX (77840)

1:18 PM CST en Enero 24, 2017 (GMT -0600)
Southwood Valley | | Change Station

Alt 292 ft 30.59 °N, 96.31 °W | Updated 8 minutes ago

Clear
Despejado
79.0 ° F
Sensación térmica 80 ° F
N
8.9
Viento Variable Viento desde Sur

Hoy
Alta -- | Baja -- ° F
--% Posibilidad de precipitaciones
Ayer
Alta -- | Baja -- ° F
Precip. -- pul
Presión 29.73 pul
Visibilidad 10.0 Millas
Nubes Despejado
Índice de calor 80 ° F
Punto de rocío 60 ° F
Humedad 53%
Precipitaciones 0.00 pul
Espesor de la nieve No disponible.
7:20 AM 5:54 PM
Creciente menguante, 10% visible
METAR KCLL 241853Z 18016G25KT 10SM CLR 25/15 A2973 RMK AO2 PK WND 16028/1840 SLP066 T02500150
Presión 29.73 pul
Visibilidad 10.0 Millas
Nubes Despejado
Índice de calor 80 ° F
Punto de rocío 60 ° F
Humedad 53%
Precipitaciones 0.00 pul
Espesor de la nieve No disponible.
7:20 AM 5:54 PM
Creciente menguante, 10% visible
METAR KCLL 241853Z 18016G25KT 10SM CLR 25/15 A2973 RMK AO2 PK WND 16028/1840 SLP066 T02500150

Get Your Daily Forecast Email!

Thanks for signing up!

Be on the lookout for a verification email in your inbox.

You'll start receiving the daily forecast at 8 AM.

×

10-Day Weather Forecast

Almanac

Astronomía

Jan. 24, 2017 Salida Puesta
Hora real
Crepúsculo civil
Crepúsculo náutico
Crepúsculo astronómico
Luna
Horas de luz
Horas de luz
Tomorrow will be .
, % of the Moon is Illuminated

Extremos de hoy

Máximos del estado Bajos del estado

Community

WunderPhotos

Upload Photos

1,962,540 ¡fotos cargadas!

WunderBlog® & News

Nearby

Calidad del aire

  Calidad del aire Índice AQ Contaminante
Not available.

Grosos de nieve

Estación Profundido Altura

Actividad de terremotos

Ciudad Distance Mag. Tiempo y dato
Magnitud mínima muestra es 2,5.

Temperaturas de aguas costeras

Lugar Temperatura

Stations

Estaciones meteorológicas cercanas

Ubicación de la estación Temp. Vientos helados Punto de rocío Humedad Viento Precip. Alt Actualizado Tipo
                   

Watches & Warnings

There are currently no watches in effect.